Terminal Aerodrome Forecast
Issued by NWS

Home | Current Version | Previous Version | Text Only | Print | Product List | Glossary Off
Versions: 1 2 3 4 5 6 7 8 9 10 11 12 13 14 15 16 17 18 19 20

000
FTUS43 KICT 051131
TAFRSL
TAF
KRSL 051131Z 0512/0612 16012KT P6SM SCT080
     FM051500 18020G31KT P6SM SCT300
     FM060200 18015G22KT P6SM FEW050 BKN200=

USA.gov is the U.S. government's official web portal to all federal, state and local government web resources and services.